Main page
METAR-TAF:

METAR-TAF

Airports :

Amman Civil Airport

Amman, Jordan

latitude: 31-59N, longitude: 035-59E, elevation: 767 m

Current weather observation

The report was made 43 minutes ago, at 21:00 UTC
Wind 6 kt from the West/Southwest
Temperature 9°C
Humidity 81%
Pressure 1013 hPa
Visibility: 7000 m

METAR: OJAM 092100Z 25006KT 7000 NSC 09/06 Q1013 NOSIG

Time: 00:43 (21:43 UTC)

Forecast

The report was made 4 hours and 43 minutes ago, at 17:00 UTC
Forecast valid from 09 at 18 UTC to 10 at 24 UTC
Wind 8 kt from the West
Visibility: 5000 m
Scattered clouds at a height of 3500 ft
haze
Probability 30% :
Temporary
from 10 at 01 UTC to 10 at 06 UTC
Visibility: 0800 m
Scattered clouds at a height of 3000 ft
fog
Temporary
from 10 at 06 UTC to 10 at 18 UTC
Wind 12 kt from the West
Visibility: 3000 m
Scattered clouds at a height of 3000 ft
Scattered clouds at a height of 3500 ft
rain

TAF: OJAM 091700Z 0918/1024 27008KT 5000 HZ SCT035 PROB30 TEMPO 1001/1006 0800 FG SCT030 TEMPO 1006/1018 27012KT 3000 RA SCT030 SCT035

Weather observations and forecasts of more than 4000 airports (METAR and TAF reports).

The available stations are represented by yellow and red dots on the map.

Hover mouse over dot to see the name of the station.

Then click to see weather observations and forecasts.

To change the map : click on the green buttons with a black cross to zoom in, on the green button with a dash to zoom out, or on the green arrows for adjacent maps.


METAR-TAF: